createdAt,value
2017-10-30T00:00:26.383Z,4.95
2017-10-30T00:01:31.877Z,5.20
2017-10-30T00:02:37.382Z,5.10
2017-10-30T00:03:43.183Z,5.32
2017-10-30T00:04:48.855Z,4.75
2017-10-30T00:05:54.746Z,5.57
2017-10-30T00:07:00.211Z,4.63
2017-10-30T00:08:05.961Z,4.75
2017-10-30T00:09:11.750Z,4.80
2017-10-30T00:10:17.255Z,4.40
2017-10-30T00:11:22.691Z,4.50
2017-10-30T00:12:28.151Z,4.18
2017-10-30T00:13:33.625Z,5.07
2017-10-30T00:14:39.051Z,4.72
2017-10-30T00:15:44.509Z,5.03
2017-10-30T00:16:49.912Z,4.10
2017-10-30T00:17:57.210Z,4.87
2017-10-30T00:19:02.863Z,5.75
2017-10-30T00:20:08.470Z,5.20
2017-10-30T00:21:14.075Z,4.55
2017-10-30T00:22:19.490Z,4.53
2017-10-30T00:23:25.119Z,4.95
2017-10-30T00:24:30.511Z,4.30
2017-10-30T00:25:35.965Z,4.30
2017-10-30T00:26:41.401Z,5.03
2017-10-30T00:27:46.834Z,4.78
2017-10-30T00:28:52.286Z,4.50
2017-10-30T00:29:57.677Z,5.60
2017-10-30T00:31:03.082Z,4.70
2017-10-30T00:32:08.670Z,4.15
2017-10-30T00:33:14.128Z,5.03
2017-10-30T00:34:19.894Z,4.60
2017-10-30T00:35:25.346Z,4.40
2017-10-30T00:36:30.774Z,4.43
2017-10-30T00:37:36.641Z,5.15
2017-10-30T00:38:42.087Z,4.70
2017-10-30T00:39:48.269Z,5.12
2017-10-30T00:40:53.691Z,4.50
2017-10-30T00:41:59.335Z,4.57
2017-10-30T00:43:04.887Z,5.12
2017-10-30T00:44:10.322Z,4.18
2017-10-30T00:45:16.051Z,4.57
2017-10-30T00:46:21.432Z,4.60
2017-10-30T00:47:26.940Z,5.55
2017-10-30T00:48:32.499Z,4.55
2017-10-30T00:49:37.879Z,5.15
2017-10-30T00:50:44.816Z,4.90
2017-10-30T00:51:50.233Z,4.57
2017-10-30T00:52:55.694Z,4.70
2017-10-30T00:54:02.551Z,4.55
2017-10-30T00:55:07.974Z,4.87
2017-10-30T00:56:13.455Z,5.12
2017-10-30T00:57:19.396Z,4.60
2017-10-30T00:58:25.077Z,4.78
2017-10-30T00:59:30.527Z,4.03
2017-10-30T01:00:35.939Z,4.80
2017-10-30T01:01:41.706Z,4.70
2017-10-30T01:02:47.529Z,5.00
2017-10-30T01:03:53.008Z,5.03
2017-10-30T01:04:58.487Z,5.22
2017-10-30T01:06:03.867Z,4.70
2017-10-30T01:07:09.295Z,4.90
2017-10-30T01:08:14.705Z,4.85
2017-10-30T01:09:20.438Z,4.72
2017-10-30T01:10:25.839Z,4.70
2017-10-30T01:11:31.376Z,5.50
2017-10-30T01:12:37.072Z,4.60
2017-10-30T01:13:42.482Z,4.90
2017-10-30T01:14:47.903Z,4.65
2017-10-30T01:15:53.483Z,5.07
2017-10-30T01:16:59.010Z,4.55
2017-10-30T01:18:04.968Z,5.05
2017-10-30T01:19:10.980Z,5.05
2017-10-30T01:20:16.572Z,4.70
2017-10-30T01:21:22.207Z,5.30
2017-10-30T01:22:27.607Z,4.90
2017-10-30T01:23:33.033Z,5.25
2017-10-30T01:24:38.451Z,4.95
2017-10-30T01:25:44.639Z,4.45
2017-10-30T01:26:50.017Z,5.60
2017-10-30T01:27:55.404Z,4.95
2017-10-30T01:29:00.804Z,5.03
2017-10-30T01:30:06.211Z,5.10
2017-10-30T01:31:11.611Z,4.90
2017-10-30T01:32:17.043Z,6.25
2017-10-30T01:33:22.447Z,4.80
2017-10-30T01:34:27.815Z,4.37
2017-10-30T01:35:33.238Z,4.45
2017-10-30T01:36:38.648Z,4.75
2017-10-30T01:37:44.054Z,4.87
2017-10-30T01:38:49.525Z,5.12
2017-10-30T01:39:54.974Z,5.25
2017-10-30T01:41:00.420Z,5.53
2017-10-30T01:42:06.157Z,5.22
2017-10-30T01:43:11.915Z,4.82
2017-10-30T01:44:17.315Z,4.40
2017-10-30T01:45:22.728Z,4.75
2017-10-30T01:46:28.720Z,5.30
2017-10-30T01:47:34.618Z,4.87
2017-10-30T01:48:40.563Z,4.93
2017-10-30T01:49:46.397Z,4.85
2017-10-30T01:50:52.120Z,4.62
2017-10-30T01:51:57.602Z,4.93
2017-10-30T01:53:03.398Z,5.60
2017-10-30T01:54:08.897Z,5.50
2017-10-30T01:55:15.418Z,5.15
2017-10-30T01:56:20.919Z,5.10
2017-10-30T01:57:26.422Z,6.00
2017-10-30T01:58:31.892Z,4.65
2017-10-30T01:59:37.428Z,5.05
2017-10-30T02:00:43.365Z,4.03
2017-10-30T02:01:48.893Z,4.72
2017-10-30T02:02:54.908Z,4.82
2017-10-30T02:04:00.569Z,5.43
2017-10-30T02:05:06.263Z,4.65
2017-10-30T02:06:11.886Z,4.60
2017-10-30T02:07:17.325Z,4.60
2017-10-30T02:08:22.792Z,4.82
2017-10-30T02:09:28.263Z,5.07
2017-10-30T02:10:33.672Z,5.30
2017-10-30T02:11:39.271Z,5.70
2017-10-30T02:12:45.131Z,5.00
2017-10-30T02:13:51.172Z,5.30
2017-10-30T02:14:57.042Z,4.40
2017-10-30T02:16:03.048Z,4.80
2017-10-30T02:17:08.497Z,5.68
2017-10-30T02:18:13.971Z,5.33
2017-10-30T02:19:20.298Z,4.87
2017-10-30T02:20:25.964Z,5.10
2017-10-30T02:21:31.496Z,5.10
2017-10-30T02:22:37.105Z,4.25
2017-10-30T02:23:42.847Z,4.78
2017-10-30T02:24:48.335Z,5.82
2017-10-30T02:25:53.855Z,4.57
2017-10-30T02:26:59.305Z,4.57
2017-10-30T02:28:04.813Z,4.70
2017-10-30T02:29:10.227Z,5.25
2017-10-30T02:30:16.267Z,5.10
2017-10-30T02:31:21.762Z,4.65
2017-10-30T02:32:27.328Z,5.90
2017-10-30T02:33:33.061Z,5.22
2017-10-30T02:34:38.859Z,5.35
2017-10-30T02:35:45.077Z,5.03
2017-10-30T02:36:50.570Z,5.90
2017-10-30T02:37:56.078Z,5.87
2017-10-30T02:39:01.528Z,6.18
2017-10-30T02:40:07.391Z,6.00
2017-10-30T02:41:13.207Z,5.03
2017-10-30T02:42:19.086Z,4.95
2017-10-30T02:43:24.526Z,4.90
2017-10-30T02:44:30.032Z,4.87
2017-10-30T02:45:35.721Z,5.25
2017-10-30T02:46:41.158Z,5.03
2017-10-30T02:47:46.945Z,5.32
2017-10-30T02:48:52.608Z,5.32
2017-10-30T02:49:58.374Z,5.55
2017-10-30T02:51:04.141Z,5.20
2017-10-30T02:52:09.998Z,5.43
2017-10-30T02:53:15.594Z,5.43
2017-10-30T02:54:21.606Z,4.62
2017-10-30T02:55:27.036Z,5.20
2017-10-30T02:56:32.531Z,5.10
2017-10-30T02:57:38.003Z,5.25
2017-10-30T02:58:43.495Z,4.82
2017-10-30T02:59:48.955Z,5.37
2017-10-30T03:00:54.483Z,6.45
2017-10-30T03:01:59.952Z,4.43
2017-10-30T03:03:05.412Z,4.68
2017-10-30T03:04:10.871Z,4.67
2017-10-30T03:05:16.434Z,4.03
2017-10-30T03:06:22.241Z,4.82
2017-10-30T03:07:27.697Z,4.72
2017-10-30T03:08:33.259Z,4.95
2017-10-30T03:09:38.787Z,5.10
2017-10-30T03:10:44.623Z,4.90
2017-10-30T03:11:50.152Z,5.40
2017-10-30T03:12:55.992Z,5.65
2017-10-30T03:14:02.573Z,5.30
2017-10-30T03:15:08.746Z,6.00
2017-10-30T03:16:14.163Z,5.00
2017-10-30T03:17:19.914Z,5.82
2017-10-30T03:18:25.479Z,5.78
2017-10-30T03:19:32.425Z,5.50
2017-10-30T03:20:38.636Z,6.15
2017-10-30T03:21:45.077Z,5.93
2017-10-30T03:22:50.674Z,6.25
2017-10-30T03:23:56.101Z,6.03
2017-10-30T03:25:01.631Z,5.40
2017-10-30T03:26:07.070Z,6.30
2017-10-30T03:27:12.614Z,5.70
2017-10-30T03:28:18.482Z,5.95
2017-10-30T03:29:24.391Z,5.70
2017-10-30T03:30:29.951Z,5.78
2017-10-30T03:31:35.393Z,7.10
2017-10-30T03:32:40.794Z,6.07
2017-10-30T03:33:47.164Z,6.30
2017-10-30T03:34:53.000Z,6.85
2017-10-30T03:35:58.888Z,6.40
2017-10-30T03:37:04.534Z,6.10
2017-10-30T03:38:09.992Z,6.25
2017-10-30T03:39:15.946Z,6.20
2017-10-30T03:40:21.575Z,6.60
2017-10-30T03:41:27.056Z,5.93
2017-10-30T03:42:32.552Z,5.72
2017-10-30T03:43:38.061Z,6.65
2017-10-30T03:44:43.782Z,5.95
2017-10-30T03:45:49.286Z,5.97
2017-10-30T03:46:54.906Z,5.70
2017-10-30T03:48:00.568Z,6.35
2017-10-30T03:49:06.080Z,7.37
2017-10-30T03:50:11.714Z,6.78
2017-10-30T03:51:17.187Z,5.53
2017-10-30T03:52:22.791Z,5.50
2017-10-30T03:53:28.450Z,6.12
2017-10-30T03:54:34.126Z,6.60
2017-10-30T03:55:39.757Z,6.03
2017-10-30T03:56:45.843Z,5.30
2017-10-30T03:57:52.285Z,6.60
2017-10-30T03:58:57.954Z,6.20
2017-10-30T04:00:03.397Z,5.87
2017-10-30T04:01:09.065Z,6.07
2017-10-30T04:02:14.569Z,6.72
2017-10-30T04:03:20.347Z,5.60
2017-10-30T04:04:25.966Z,6.03
2017-10-30T04:05:31.684Z,6.00
2017-10-30T04:06:37.707Z,5.60
2017-10-30T04:07:43.589Z,5.70
2017-10-30T04:08:49.482Z,5.55
2017-10-30T04:09:54.880Z,6.68
2017-10-30T04:11:00.450Z,7.15
2017-10-30T04:12:06.112Z,6.78
2017-10-30T04:13:11.659Z,7.75
2017-10-30T04:14:17.575Z,6.93
2017-10-30T04:15:22.987Z,7.50
2017-10-30T04:16:28.414Z,6.85
2017-10-30T04:17:33.831Z,6.55
2017-10-30T04:18:39.407Z,6.35
2017-10-30T04:19:44.769Z,5.82
2017-10-30T04:20:50.575Z,6.07
2017-10-30T04:21:56.014Z,7.60
2017-10-30T04:23:01.721Z,6.53
2017-10-30T04:24:07.145Z,6.40
2017-10-30T04:25:12.563Z,6.12
2017-10-30T04:26:17.972Z,6.15
2017-10-30T04:27:23.564Z,5.37
2017-10-30T04:28:29.122Z,5.47
2017-10-30T04:29:34.517Z,5.60
2017-10-30T04:30:39.939Z,6.00
2017-10-30T04:31:45.419Z,6.30
2017-10-30T04:32:50.790Z,7.50
2017-10-30T04:33:56.292Z,6.23
2017-10-30T04:35:01.934Z,6.60
2017-10-30T04:36:07.323Z,6.13
2017-10-30T04:37:12.732Z,5.43
2017-10-30T04:38:18.105Z,6.00
2017-10-30T04:39:23.853Z,6.30
2017-10-30T04:40:29.299Z,6.47
2017-10-30T04:41:34.798Z,6.43
2017-10-30T04:42:40.663Z,6.30
2017-10-30T04:43:46.127Z,5.87
2017-10-30T04:44:51.604Z,6.78
2017-10-30T04:45:57.034Z,5.78
2017-10-30T04:47:02.493Z,5.53
2017-10-30T04:48:07.926Z,6.32
2017-10-30T04:49:13.588Z,5.30
2017-10-30T04:50:19.051Z,6.18
2017-10-30T04:51:24.483Z,6.00
2017-10-30T04:52:29.927Z,5.12
2017-10-30T04:53:35.369Z,5.80
2017-10-30T04:54:41.133Z,6.30
2017-10-30T04:55:46.772Z,5.65
2017-10-30T04:56:52.233Z,4.95
2017-10-30T04:57:57.684Z,5.60
2017-10-30T04:59:03.164Z,6.25
2017-10-30T05:00:08.949Z,6.10
2017-10-30T05:01:14.623Z,6.30
2017-10-30T05:02:20.190Z,6.20
2017-10-30T05:03:25.899Z,5.65
2017-10-30T05:04:31.306Z,5.68
2017-10-30T05:05:37.907Z,5.57
2017-10-30T05:06:44.004Z,5.68
2017-10-30T05:07:49.599Z,6.03
2017-10-30T05:08:54.963Z,4.90
2017-10-30T05:10:00.328Z,5.45
2017-10-30T05:11:05.718Z,6.40
2017-10-30T05:12:11.329Z,5.10
2017-10-30T05:13:16.774Z,4.90
2017-10-30T05:14:22.209Z,5.40
2017-10-30T05:15:27.715Z,4.75
2017-10-30T05:16:33.260Z,5.40
2017-10-30T05:17:38.966Z,5.60
2017-10-30T05:18:44.393Z,5.30
2017-10-30T05:19:49.771Z,5.20
2017-10-30T05:20:55.254Z,5.35
2017-10-30T05:22:00.777Z,5.45
2017-10-30T05:23:06.163Z,5.95
2017-10-30T05:24:11.672Z,5.50
2017-10-30T05:25:17.175Z,5.57
2017-10-30T05:26:22.729Z,5.20
2017-10-30T05:27:28.206Z,4.70
2017-10-30T05:28:33.604Z,5.35
2017-10-30T05:29:39.096Z,4.78
2017-10-30T05:30:44.551Z,5.45
2017-10-30T05:31:50.014Z,6.20
2017-10-30T05:32:55.396Z,5.25
2017-10-30T05:34:00.981Z,5.32
2017-10-30T05:35:06.514Z,5.30
2017-10-30T05:36:12.292Z,4.80
2017-10-30T05:37:17.702Z,4.62
2017-10-30T05:38:23.782Z,4.90
2017-10-30T05:39:29.412Z,4.30
2017-10-30T05:40:34.935Z,5.32
2017-10-30T05:41:40.917Z,5.30
2017-10-30T05:42:46.357Z,4.90
2017-10-30T05:43:51.780Z,5.50
2017-10-30T05:44:57.323Z,4.40
2017-10-30T05:46:03.019Z,4.47
2017-10-30T05:47:08.908Z,5.55
2017-10-30T05:48:14.446Z,5.20
2017-10-30T05:49:20.842Z,5.00
2017-10-30T05:50:26.325Z,4.65
2017-10-30T05:51:31.771Z,4.87
2017-10-30T05:52:37.155Z,5.13
2017-10-30T05:53:43.105Z,5.05
2017-10-30T05:54:48.575Z,4.20
2017-10-30T05:55:53.978Z,4.50
2017-10-30T05:56:59.485Z,5.35
2017-10-30T05:58:05.319Z,4.82
2017-10-30T05:59:10.938Z,4.10
2017-10-30T06:00:16.609Z,4.70
2017-10-30T06:01:22.013Z,4.37
2017-10-30T06:02:27.456Z,5.30
2017-10-30T06:03:32.871Z,4.00
2017-10-30T06:04:38.246Z,4.40
2017-10-30T06:05:43.803Z,5.30
2017-10-30T06:06:49.352Z,5.03
2017-10-30T06:07:54.776Z,4.82
2017-10-30T06:09:00.186Z,4.62
2017-10-30T06:10:05.871Z,4.63
2017-10-30T06:11:11.508Z,3.83
2017-10-30T06:12:16.945Z,4.62
2017-10-30T06:13:22.366Z,5.20
2017-10-30T06:14:27.776Z,4.57
2017-10-30T06:15:33.704Z,4.70
2017-10-30T06:16:39.139Z,4.93
2017-10-30T06:17:44.576Z,5.22
2017-10-30T06:18:49.992Z,4.00
2017-10-30T06:19:55.511Z,4.90
2017-10-30T06:21:01.041Z,5.72
2017-10-30T06:22:06.419Z,4.70
2017-10-30T06:23:11.806Z,4.97
2017-10-30T06:24:17.271Z,4.18
2017-10-30T06:25:22.674Z,5.03
2017-10-30T06:26:28.214Z,4.35
2017-10-30T06:27:33.615Z,4.95
2017-10-30T06:28:38.975Z,4.10
2017-10-30T06:29:44.375Z,4.65
2017-10-30T06:30:49.851Z,4.30
2017-10-30T06:31:56.029Z,5.22
2017-10-30T06:33:01.596Z,5.10
2017-10-30T06:34:07.054Z,4.40
2017-10-30T06:35:12.955Z,5.40
2017-10-30T06:36:18.357Z,4.68
2017-10-30T06:37:24.029Z,5.43
2017-10-30T06:38:29.427Z,5.45
2017-10-30T06:39:34.844Z,3.97
2017-10-30T06:40:40.398Z,5.10
2017-10-30T06:41:45.869Z,4.57
2017-10-30T06:42:53.487Z,4.90
2017-10-30T06:44:01.015Z,4.43
2017-10-30T06:45:08.360Z,4.60
2017-10-30T06:46:13.747Z,4.70
2017-10-30T06:47:19.284Z,4.30
2017-10-30T06:48:24.724Z,4.93
2017-10-30T06:49:30.165Z,4.95
2017-10-30T06:50:35.571Z,4.90
2017-10-30T06:51:40.952Z,5.27
2017-10-30T06:52:46.335Z,5.07
2017-10-30T06:53:51.778Z,4.30
2017-10-30T06:54:57.144Z,4.00
2017-10-30T06:56:02.530Z,2.80
2017-10-30T06:57:07.927Z,4.05
2017-10-30T06:58:13.409Z,4.23
2017-10-30T06:59:18.814Z,4.43
2017-10-30T07:00:24.223Z,5.10
2017-10-30T07:01:29.638Z,4.23
2017-10-30T07:02:35.288Z,4.10
2017-10-30T07:03:40.666Z,4.62
2017-10-30T07:04:46.055Z,4.00
2017-10-30T07:05:51.449Z,4.13
2017-10-30T07:06:56.851Z,4.40
2017-10-30T07:08:03.120Z,5.45
2017-10-30T07:09:08.528Z,4.43
2017-10-30T07:10:13.913Z,3.83
2017-10-30T07:11:19.403Z,5.70
2017-10-30T07:12:24.822Z,4.10
2017-10-30T07:13:30.353Z,3.87
2017-10-30T07:14:35.841Z,5.12
2017-10-30T07:15:41.355Z,5.20
2017-10-30T07:16:46.828Z,5.47
2017-10-30T07:17:52.214Z,4.20
2017-10-30T07:18:57.668Z,4.20
2017-10-30T07:20:03.632Z,4.23
2017-10-30T07:21:09.070Z,3.95
2017-10-30T07:22:14.751Z,5.03
2017-10-30T07:23:20.194Z,4.10
2017-10-30T07:24:25.608Z,4.63
2017-10-30T07:25:31.028Z,4.33
2017-10-30T07:26:37.119Z,4.20
2017-10-30T07:27:42.750Z,4.80
2017-10-30T07:28:48.216Z,4.95
2017-10-30T07:29:53.606Z,5.70
2017-10-30T07:30:59.302Z,3.70
2017-10-30T07:32:04.720Z,3.35
2017-10-30T07:33:10.136Z,4.13
2017-10-30T07:34:15.537Z,4.85
2017-10-30T07:35:20.934Z,4.40
2017-10-30T07:36:26.383Z,5.10
2017-10-30T07:37:34.376Z,4.20
2017-10-30T07:38:42.781Z,3.93
2017-10-30T07:39:50.165Z,3.78
2017-10-30T07:40:55.819Z,3.47
2017-10-30T07:42:01.672Z,4.70
2017-10-30T07:43:07.198Z,4.87
2017-10-30T07:44:12.964Z,3.95
2017-10-30T07:45:18.415Z,3.80
2017-10-30T07:46:23.857Z,4.03
2017-10-30T07:47:29.325Z,3.70
2017-10-30T07:48:34.762Z,2.70
2017-10-30T07:49:40.290Z,4.10
2017-10-30T07:50:45.770Z,5.13
2017-10-30T07:51:51.503Z,4.80
2017-10-30T07:52:56.989Z,4.60
2017-10-30T07:54:02.454Z,4.60
2017-10-30T07:55:07.985Z,5.20
2017-10-30T07:56:15.254Z,3.50
2017-10-30T07:57:20.976Z,4.53
2017-10-30T07:58:26.473Z,4.97
2017-10-30T07:59:32.349Z,4.33
2017-10-30T08:00:37.850Z,3.67
2017-10-30T08:01:43.352Z,3.83
2017-10-30T08:02:48.898Z,4.07
2017-10-30T08:03:54.430Z,5.23
2017-10-30T08:04:59.989Z,3.40
2017-10-30T08:06:05.486Z,3.73
2017-10-30T08:07:11.039Z,3.03
2017-10-30T08:08:16.539Z,4.37
2017-10-30T08:09:22.080Z,4.67
2017-10-30T08:10:27.924Z,4.30
2017-10-30T08:11:33.435Z,5.07
2017-10-30T08:12:39.055Z,5.30
2017-10-30T08:13:45.713Z,3.93
2017-10-30T08:14:53.491Z,4.17
2017-10-30T08:16:00.383Z,4.17
2017-10-30T08:17:07.391Z,4.00
2017-10-30T08:18:14.485Z,3.03
2017-10-30T08:19:21.162Z,3.33
2017-10-30T08:20:31.716Z,4.30
2017-10-30T08:21:40.497Z,3.53
2017-10-30T08:22:48.981Z,4.47
2017-10-30T08:24:00.378Z,3.90
2017-10-30T08:25:11.036Z,4.50
2017-10-30T08:26:19.384Z,4.70
2017-10-30T08:27:29.649Z,4.67
2017-10-30T08:28:37.818Z,3.70
2017-10-30T08:29:48.220Z,4.50
2017-10-30T08:30:55.167Z,5.60
2017-10-30T08:32:04.193Z,4.78
2017-10-30T08:33:12.888Z,3.83
2017-10-30T08:34:20.097Z,5.40
2017-10-30T08:35:27.847Z,5.00
2017-10-30T08:36:35.291Z,4.77
2017-10-30T08:37:41.966Z,3.80
2017-10-30T08:38:51.069Z,3.87
2017-10-30T08:40:01.527Z,5.40
2017-10-30T08:41:11.534Z,4.70
2017-10-30T08:42:19.031Z,4.03
2017-10-30T08:43:25.783Z,4.87
2017-10-30T08:44:38.103Z,2.83
2017-10-30T08:45:45.951Z,4.17
2017-10-30T08:46:53.929Z,4.67
2017-10-30T08:48:01.965Z,3.87
2017-10-30T08:49:11.849Z,3.53
2017-10-30T08:50:25.740Z,4.47
2017-10-30T08:51:38.747Z,4.57
2017-10-30T08:52:45.273Z,3.53
2017-10-30T08:53:52.695Z,3.73
2017-10-30T08:55:02.754Z,3.90
2017-10-30T08:56:10.762Z,4.30
2017-10-30T08:57:17.128Z,4.50
2017-10-30T08:58:23.798Z,3.60
2017-10-30T08:59:30.494Z,4.00
2017-10-30T09:00:38.920Z,2.90
2017-10-30T09:01:46.354Z,4.57
2017-10-30T09:02:54.533Z,4.97
2017-10-30T09:04:03.600Z,3.80
2017-10-30T09:05:11.264Z,4.33
2017-10-30T09:06:18.735Z,3.73
2017-10-30T09:07:25.110Z,3.30
2017-10-30T09:08:32.220Z,4.00
2017-10-30T09:09:38.915Z,4.20
2017-10-30T09:10:47.377Z,5.37
2017-10-30T09:11:54.821Z,3.70
2017-10-30T09:13:01.755Z,4.30
2017-10-30T09:14:09.953Z,4.10
2017-10-30T09:15:17.026Z,3.23
2017-10-30T09:16:26.284Z,4.70
2017-10-30T09:17:33.858Z,4.00
2017-10-30T09:18:41.814Z,4.70
2017-10-30T09:19:49.128Z,3.10
2017-10-30T09:20:57.290Z,3.80
2017-10-30T09:22:09.431Z,3.13
2017-10-30T09:23:17.761Z,3.23
2017-10-30T09:24:23.462Z,3.92
2017-10-30T09:25:31.176Z,4.20
2017-10-30T09:26:36.790Z,5.28
2017-10-30T09:27:42.286Z,4.47
2017-10-30T09:28:47.774Z,4.37
2017-10-30T09:29:53.341Z,4.55
2017-10-30T09:30:58.918Z,4.40
2017-10-30T09:32:04.600Z,4.80
2017-10-30T09:33:10.113Z,4.20
2017-10-30T09:34:17.167Z,4.87
2017-10-30T09:35:22.587Z,4.62
2017-10-30T09:36:28.039Z,4.25
2017-10-30T09:37:34.031Z,4.62
2017-10-30T09:38:39.550Z,3.93
2017-10-30T09:39:44.999Z,4.10
2017-10-30T09:40:52.637Z,4.85
2017-10-30T09:41:58.205Z,5.07
2017-10-30T09:43:03.804Z,4.62
2017-10-30T09:44:09.395Z,4.85
2017-10-30T09:45:14.849Z,4.70
2017-10-30T09:46:20.445Z,4.65
2017-10-30T09:47:27.857Z,4.70
2017-10-30T09:48:35.984Z,4.60
2017-10-30T09:49:43.504Z,5.00
2017-10-30T09:50:50.246Z,4.90
2017-10-30T09:51:58.369Z,5.60
2017-10-30T09:53:04.821Z,5.80
2017-10-30T09:54:12.228Z,5.03
2017-10-30T09:55:19.722Z,5.75
2017-10-30T09:57:38.836Z,5.00
2017-10-30T09:58:44.406Z,4.05
2017-10-30T09:59:49.957Z,4.70
2017-10-30T10:00:55.451Z,4.30
2017-10-30T10:02:02.190Z,4.60
2017-10-30T10:03:09.762Z,3.97
2017-10-30T10:04:16.173Z,4.80
2017-10-30T10:05:21.780Z,4.80
2017-10-30T10:06:27.417Z,4.93
2017-10-30T10:07:33.397Z,5.37
2017-10-30T10:08:38.959Z,4.50
2017-10-30T10:09:44.731Z,4.50
2017-10-30T10:10:50.357Z,4.37
2017-10-30T10:11:55.842Z,4.68
2017-10-30T10:13:08.416Z,4.30
2017-10-30T10:14:13.898Z,4.80
2017-10-30T10:15:19.572Z,4.70
2017-10-30T10:16:25.272Z,4.78
2017-10-30T10:17:31.599Z,3.83
2017-10-30T10:18:40.453Z,4.10
2017-10-30T10:19:47.942Z,4.55
2017-10-30T10:20:54.227Z,4.68
2017-10-30T10:22:00.645Z,4.30
2017-10-30T10:23:08.754Z,5.50
2017-10-30T10:24:15.569Z,6.07
2017-10-30T10:25:22.902Z,4.90
2017-10-30T10:26:31.507Z,4.68
2017-10-30T10:27:39.991Z,4.68
2017-10-30T10:28:47.195Z,4.50
2017-10-30T10:29:54.973Z,4.10
2017-10-30T10:31:02.097Z,4.50
2017-10-30T10:32:08.279Z,4.40
2017-10-30T10:33:16.083Z,3.70
2017-10-30T10:34:22.614Z,4.03
2017-10-30T10:35:29.841Z,3.95
2017-10-30T10:36:37.378Z,4.35
2017-10-30T10:37:44.705Z,4.40
2017-10-30T10:38:51.970Z,3.78
2017-10-30T10:39:59.051Z,3.60
2017-10-30T10:41:05.879Z,3.72
2017-10-30T10:42:13.509Z,4.50
2017-10-30T10:43:21.017Z,4.25
2017-10-30T10:44:27.261Z,5.00
2017-10-30T10:45:34.506Z,4.30
2017-10-30T10:46:40.837Z,4.57
2017-10-30T10:47:47.098Z,4.90
2017-10-30T10:48:54.127Z,4.20
2017-10-30T10:50:00.556Z,4.97
2017-10-30T10:51:07.812Z,4.40
2017-10-30T10:52:15.360Z,5.22
2017-10-30T10:53:21.910Z,4.53
2017-10-30T10:54:28.282Z,4.07
2017-10-30T10:55:35.170Z,3.92
2017-10-30T10:56:42.978Z,4.28
2017-10-30T10:57:49.639Z,4.78
2017-10-30T10:58:55.996Z,4.60
2017-10-30T11:00:02.555Z,5.75
2017-10-30T11:01:08.811Z,3.60
2017-10-30T11:02:15.818Z,5.12
2017-10-30T11:03:22.274Z,6.60
2017-10-30T11:04:28.723Z,5.12
2017-10-30T11:05:35.236Z,6.82
2017-10-30T11:06:41.999Z,5.97
2017-10-30T11:07:49.726Z,3.90
2017-10-30T11:08:56.215Z,3.30
2017-10-30T11:10:04.635Z,3.50
2017-10-30T11:11:11.027Z,3.40
2017-10-30T11:12:17.556Z,3.70
2017-10-30T11:13:24.398Z,2.75
2017-10-30T11:14:31.184Z,3.50
2017-10-30T11:15:37.570Z,3.50
2017-10-30T11:16:43.056Z,3.55
2017-10-30T11:17:50.533Z,3.22
2017-10-30T11:18:56.995Z,4.12
2017-10-30T11:20:03.370Z,3.30
2017-10-30T11:21:11.508Z,3.97
2017-10-30T11:58:59.450Z,2.60
2017-10-30T12:00:04.982Z,3.50
2017-10-30T12:01:10.429Z,3.22
2017-10-30T12:02:15.960Z,2.97
2017-10-30T12:03:21.738Z,3.33
2017-10-30T12:04:27.672Z,3.50
2017-10-30T12:05:33.399Z,4.12
2017-10-30T12:06:38.957Z,4.10
2017-10-30T12:07:44.552Z,3.80
2017-10-30T12:08:50.187Z,3.30
2017-10-30T12:09:55.729Z,3.83
2017-10-30T12:11:01.178Z,3.10
2017-10-30T12:12:06.850Z,3.50
2017-10-30T12:13:12.311Z,3.12
2017-10-30T12:14:18.198Z,2.90
2017-10-30T12:15:24.958Z,2.87
2017-10-30T12:16:30.719Z,3.15
2017-10-30T12:17:36.168Z,3.30
2017-10-30T12:18:42.476Z,3.40
2017-10-30T12:19:48.203Z,4.00
2017-10-30T12:20:53.752Z,3.60
2017-10-30T12:21:59.265Z,3.05
2017-10-30T12:23:04.798Z,3.05
2017-10-30T12:24:10.314Z,3.70
2017-10-30T12:25:16.053Z,3.28
2017-10-30T12:26:21.520Z,3.12
2017-10-30T12:27:27.229Z,3.65
2017-10-30T12:28:32.637Z,3.80
2017-10-30T12:29:38.126Z,3.55
2017-10-30T12:30:44.504Z,3.30
2017-10-30T12:31:50.127Z,4.07
2017-10-30T12:32:55.979Z,3.10
2017-10-30T12:34:01.421Z,3.33
2017-10-30T12:35:06.897Z,2.80
2017-10-30T12:36:12.330Z,3.50
2017-10-30T12:37:17.864Z,3.80
2017-10-30T12:38:23.377Z,4.32
2017-10-30T12:39:28.897Z,3.80
2017-10-30T12:40:34.462Z,3.58
2017-10-30T12:41:40.020Z,4.30
2017-10-30T12:42:45.469Z,4.05
2017-10-30T12:43:52.166Z,4.50
2017-10-30T12:44:58.105Z,3.80
2017-10-30T12:46:03.659Z,3.72
2017-10-30T12:47:09.083Z,3.70
2017-10-30T12:48:14.514Z,3.58
2017-10-30T12:49:20.102Z,7.62
2017-10-30T12:50:25.684Z,3.20
2017-10-30T12:51:31.211Z,2.13
2017-10-30T12:52:36.750Z,2.27
2017-10-30T12:53:42.327Z,3.33
2017-10-30T12:54:47.787Z,3.37
2017-10-30T12:55:54.098Z,2.57
2017-10-30T12:56:59.650Z,2.27
2017-10-30T12:58:06.110Z,3.63
2017-10-30T12:59:11.618Z,2.90
2017-10-30T13:00:17.186Z,2.50
2017-10-30T13:01:22.714Z,2.33
2017-10-30T13:02:28.143Z,2.33
2017-10-30T13:03:33.597Z,2.80
2017-10-30T13:04:38.981Z,2.43
2017-10-30T13:05:44.444Z,2.10
2017-10-30T13:06:50.373Z,3.00
2017-10-30T13:07:55.778Z,2.97
2017-10-30T13:09:01.253Z,2.77
2017-10-30T13:10:06.733Z,2.80
2017-10-30T13:11:12.306Z,3.07
2017-10-30T13:12:18.059Z,2.10
2017-10-30T13:13:23.582Z,2.60
2017-10-30T13:14:29.020Z,2.60
2017-10-30T13:15:34.559Z,2.83
2017-10-30T13:16:40.018Z,2.57
2017-10-30T13:17:45.493Z,2.10
2017-10-30T13:18:50.931Z,2.70
2017-10-30T13:19:56.391Z,2.40
2017-10-30T13:21:02.005Z,2.70
2017-10-30T13:22:07.496Z,2.10
2017-10-30T13:23:13.369Z,3.43
2017-10-30T13:24:18.863Z,2.33
2017-10-30T13:25:24.289Z,4.00
2017-10-30T13:26:29.709Z,3.50
2017-10-30T13:27:35.120Z,2.40
2017-10-30T13:28:40.976Z,2.50
2017-10-30T13:29:46.419Z,2.10
2017-10-30T13:30:51.863Z,2.70
2017-10-30T13:31:57.358Z,3.43
2017-10-30T13:33:02.766Z,1.83
2017-10-30T13:34:08.581Z,2.90
2017-10-30T13:35:14.066Z,2.70
2017-10-30T13:36:19.454Z,3.10
2017-10-30T13:37:24.893Z,2.60
2017-10-30T13:38:30.322Z,2.07
2017-10-30T13:39:36.116Z,3.60
2017-10-30T13:40:41.544Z,2.43
2017-10-30T13:41:46.952Z,2.27
2017-10-30T13:42:52.362Z,2.10
2017-10-30T13:43:57.807Z,3.07
2017-10-30T13:45:03.314Z,1.93
2017-10-30T13:46:08.772Z,3.70
2017-10-30T13:47:14.227Z,2.47
2017-10-30T13:48:19.649Z,2.77
2017-10-30T13:49:25.066Z,2.37
2017-10-30T13:50:31.253Z,2.43
2017-10-30T13:51:37.121Z,2.90
2017-10-30T13:52:42.567Z,1.93
2017-10-30T13:53:48.134Z,2.63
2017-10-30T13:54:53.626Z,3.90
2017-10-30T13:55:59.102Z,2.50
2017-10-30T13:57:04.695Z,2.80
2017-10-30T13:58:10.171Z,3.40
2017-10-30T13:59:15.648Z,3.50
2017-10-30T14:00:21.222Z,5.33
2017-10-30T14:01:26.648Z,4.67
2017-10-30T14:02:32.409Z,3.77
2017-10-30T14:03:37.906Z,3.50
2017-10-30T14:04:43.468Z,5.87
2017-10-30T14:05:49.205Z,2.73
2017-10-30T14:06:54.749Z,2.70
2017-10-30T14:08:00.650Z,2.57
2017-10-30T14:09:06.110Z,2.47
2017-10-30T14:10:11.562Z,2.13
2017-10-30T14:11:17.203Z,2.97
2017-10-30T14:12:22.661Z,2.50
2017-10-30T14:13:30.254Z,2.70
2017-10-30T14:14:35.959Z,3.00
2017-10-30T14:15:41.410Z,2.60
2017-10-30T14:16:47.070Z,3.47
2017-10-30T14:17:52.512Z,2.83
2017-10-30T14:18:57.945Z,2.70
2017-10-30T14:20:03.391Z,2.17
2017-10-30T14:21:08.792Z,2.53
2017-10-30T14:22:14.512Z,2.23
2017-10-30T14:23:20.045Z,2.67
2017-10-30T14:24:25.527Z,2.67
2017-10-30T14:25:31.081Z,1.63
2017-10-30T14:26:36.569Z,2.47
2017-10-30T14:27:42.042Z,2.47
2017-10-30T14:28:47.569Z,3.37
2017-10-30T14:29:53.128Z,3.03
2017-10-30T14:31:00.979Z,1.73
2017-10-30T14:32:06.803Z,2.30
2017-10-30T14:33:12.230Z,3.33
2017-10-30T14:35:21.213Z,2.13
2017-10-30T14:36:26.939Z,2.40
2017-10-30T14:37:32.644Z,1.27
2017-10-30T14:38:38.458Z,2.70
2017-10-30T14:39:43.992Z,2.63
2017-10-30T14:40:49.625Z,3.27
2017-10-30T14:41:55.174Z,2.50
2017-10-30T14:43:00.929Z,2.57
2017-10-30T14:44:06.807Z,2.97
2017-10-30T14:45:12.413Z,4.57
2017-10-30T14:46:18.062Z,6.30
2017-10-30T14:47:23.881Z,4.47
2017-10-30T14:48:29.391Z,5.53
2017-10-30T14:49:35.289Z,3.97
2017-10-30T14:50:40.830Z,5.37
2017-10-30T14:51:46.408Z,6.10
2017-10-30T14:52:52.002Z,4.47
2017-10-30T14:53:57.558Z,4.37
2017-10-30T14:55:03.635Z,3.00
2017-10-30T14:56:09.286Z,3.33
2017-10-30T14:57:14.911Z,6.43
2017-10-30T14:58:20.464Z,2.50
2017-10-30T14:59:26.119Z,2.30
2017-10-30T15:00:31.661Z,3.73
2017-10-30T15:01:37.263Z,3.93
2017-10-30T15:02:42.819Z,6.13
2017-10-30T15:03:48.373Z,4.97
2017-10-30T15:04:54.137Z,5.80
2017-10-30T15:05:59.678Z,2.83
2017-10-30T15:07:05.222Z,4.33
2017-10-30T15:08:10.732Z,5.93
2017-10-30T15:09:17.094Z,9.50
2017-10-30T15:10:22.804Z,6.93
2017-10-30T15:11:28.322Z,4.40
2017-10-30T15:12:33.904Z,7.13
2017-10-30T15:13:39.475Z,6.03
2017-10-30T15:14:44.950Z,3.73
2017-10-30T15:15:50.589Z,6.67
2017-10-30T15:16:56.048Z,3.47